sensor_id;sensor_type;location;lat;lon;timestamp;P1;durP1;ratioP1;P2;durP2;ratioP2
53339;SDS011;46212;50.258;19.062;2023-05-10T00:01:41;21.17;;;8.30;;
53339;SDS011;46212;50.258;19.062;2023-05-10T00:04:07;16.63;;;7.00;;
53339;SDS011;46212;50.258;19.062;2023-05-10T00:06:32;22.77;;;8.90;;
53339;SDS011;46212;50.258;19.062;2023-05-10T00:08:58;15.73;;;7.77;;
53339;SDS011;46212;50.258;19.062;2023-05-10T00:11:23;21.13;;;8.45;;
53339;SDS011;46212;50.258;19.062;2023-05-10T00:13:49;16.00;;;7.97;;
53339;SDS011;46212;50.258;19.062;2023-05-10T00:16:14;23.60;;;8.40;;
53339;SDS011;46212;50.258;19.062;2023-05-10T00:18:40;13.30;;;7.20;;
53339;SDS011;46212;50.258;19.062;2023-05-10T00:21:05;13.47;;;8.40;;
53339;SDS011;46212;50.258;19.062;2023-05-10T00:23:31;15.67;;;7.33;;
53339;SDS011;46212;50.258;19.062;2023-05-10T00:25:56;17.47;;;8.40;;
53339;SDS011;46212;50.258;19.062;2023-05-10T00:28:22;19.77;;;9.47;;
53339;SDS011;46212;50.258;19.062;2023-05-10T00:30:47;15.17;;;8.63;;
53339;SDS011;46212;50.258;19.062;2023-05-10T00:33:13;14.30;;;7.10;;
53339;SDS011;46212;50.258;19.062;2023-05-10T00:35:38;15.20;;;7.30;;
53339;SDS011;46212;50.258;19.062;2023-05-10T00:38:04;13.10;;;7.63;;
53339;SDS011;46212;50.258;19.062;2023-05-10T00:40:29;12.55;;;6.25;;
53339;SDS011;46212;50.258;19.062;2023-05-10T00:42:55;13.63;;;6.70;;
53339;SDS011;46212;50.258;19.062;2023-05-10T00:45:21;13.82;;;7.00;;
53339;SDS011;46212;50.258;19.062;2023-05-10T00:47:47;12.40;;;6.93;;
53339;SDS011;46212;50.258;19.062;2023-05-10T00:50:13;15.07;;;6.75;;
53339;SDS011;46212;50.258;19.062;2023-05-10T00:52:40;15.32;;;7.80;;
53339;SDS011;46212;50.258;19.062;2023-05-10T00:55:06;12.63;;;7.78;;
53339;SDS011;46212;50.258;19.062;2023-05-10T00:57:32;13.95;;;7.32;;
53339;SDS011;46212;50.258;19.062;2023-05-10T00:59:58;12.95;;;6.70;;
53339;SDS011;46212;50.258;19.062;2023-05-10T01:02:24;13.75;;;7.15;;
53339;SDS011;46212;50.258;19.062;2023-05-10T01:04:49;19.73;;;6.78;;
53339;SDS011;46212;50.258;19.062;2023-05-10T01:09:42;15.82;;;7.70;;
53339;SDS011;46212;50.258;19.062;2023-05-10T01:12:07;15.00;;;7.53;;
53339;SDS011;46212;50.258;19.062;2023-05-10T01:14:33;15.80;;;7.90;;
53339;SDS011;46212;50.258;19.062;2023-05-10T01:17:01;17.50;;;8.85;;
53339;SDS011;46212;50.258;19.062;2023-05-10T01:19:28;12.10;;;7.45;;
53339;SDS011;46212;50.258;19.062;2023-05-10T01:25:05;12.77;;;6.93;;
53339;SDS011;46212;50.258;19.062;2023-05-10T01:38:20;13.73;;;6.70;;
53339;SDS011;46212;50.258;19.062;2023-05-10T01:46:39;10.93;;;6.00;;
53339;SDS011;46212;50.258;19.062;2023-05-10T01:49:09;10.55;;;6.35;;
53339;SDS011;46212;50.258;19.062;2023-05-10T01:51:44;13.60;;;6.90;;
53339;SDS011;46212;50.258;19.062;2023-05-10T01:54:12;16.55;;;7.63;;
53339;SDS011;46212;50.258;19.062;2023-05-10T01:56:39;15.05;;;7.43;;
53339;SDS011;46212;50.258;19.062;2023-05-10T01:59:07;14.25;;;7.18;;
53339;SDS011;46212;50.258;19.062;2023-05-10T02:01:36;17.48;;;8.13;;
53339;SDS011;46212;50.258;19.062;2023-05-10T02:04:03;13.32;;;7.55;;
53339;SDS011;46212;50.258;19.062;2023-05-10T02:06:32;18.25;;;7.28;;
53339;SDS011;46212;50.258;19.062;2023-05-10T02:11:25;20.85;;;6.80;;
53339;SDS011;46212;50.258;19.062;2023-05-10T02:13:52;14.95;;;6.25;;
53339;SDS011;46212;50.258;19.062;2023-05-10T02:16:20;17.58;;;8.48;;
53339;SDS011;46212;50.258;19.062;2023-05-10T02:18:50;13.50;;;8.38;;
53339;SDS011;46212;50.258;19.062;2023-05-10T02:21:17;14.25;;;7.53;;
53339;SDS011;46212;50.258;19.062;2023-05-10T02:23:45;13.48;;;7.93;;
53339;SDS011;46212;50.258;19.062;2023-05-10T02:26:12;12.90;;;6.93;;
53339;SDS011;46212;50.258;19.062;2023-05-10T02:28:39;18.52;;;6.75;;
53339;SDS011;46212;50.258;19.062;2023-05-10T02:31:05;11.65;;;6.90;;
53339;SDS011;46212;50.258;19.062;2023-05-10T02:33:34;11.32;;;6.63;;
53339;SDS011;46212;50.258;19.062;2023-05-10T02:36:00;14.77;;;6.40;;
53339;SDS011;46212;50.258;19.062;2023-05-10T02:38:27;12.02;;;6.10;;
53339;SDS011;46212;50.258;19.062;2023-05-10T02:40:55;12.35;;;6.25;;
53339;SDS011;46212;50.258;19.062;2023-05-10T02:43:22;10.82;;;5.65;;
53339;SDS011;46212;50.258;19.062;2023-05-10T02:45:48;11.40;;;6.07;;
53339;SDS011;46212;50.258;19.062;2023-05-10T02:48:14;10.63;;;5.65;;
53339;SDS011;46212;50.258;19.062;2023-05-10T02:50:42;13.65;;;6.10;;
53339;SDS011;46212;50.258;19.062;2023-05-10T02:53:10;13.43;;;6.57;;
53339;SDS011;46212;50.258;19.062;2023-05-10T02:55:40;10.27;;;5.32;;
53339;SDS011;46212;50.258;19.062;2023-05-10T02:58:10;11.35;;;5.13;;
53339;SDS011;46212;50.258;19.062;2023-05-10T03:00:36;10.43;;;5.73;;
53339;SDS011;46212;50.258;19.062;2023-05-10T03:03:01;15.00;;;7.27;;
53339;SDS011;46212;50.258;19.062;2023-05-10T03:05:27;9.10;;;5.75;;
53339;SDS011;46212;50.258;19.062;2023-05-10T03:07:52;14.85;;;6.40;;
53339;SDS011;46212;50.258;19.062;2023-05-10T03:10:19;9.55;;;5.25;;
53339;SDS011;46212;50.258;19.062;2023-05-10T03:12:52;12.48;;;6.10;;
53339;SDS011;46212;50.258;19.062;2023-05-10T03:15:22;9.70;;;5.47;;
53339;SDS011;46212;50.258;19.062;2023-05-10T03:20:47;9.07;;;6.30;;
53339;SDS011;46212;50.258;19.062;2023-05-10T03:25:43;9.73;;;5.70;;
53339;SDS011;46212;50.258;19.062;2023-05-10T03:28:12;9.95;;;5.65;;
53339;SDS011;46212;50.258;19.062;2023-05-10T03:30:39;13.40;;;5.97;;
53339;SDS011;46212;50.258;19.062;2023-05-10T03:33:06;8.98;;;6.00;;
53339;SDS011;46212;50.258;19.062;2023-05-10T03:35:32;18.93;;;6.50;;
53339;SDS011;46212;50.258;19.062;2023-05-10T03:37:57;13.90;;;6.90;;
53339;SDS011;46212;50.258;19.062;2023-05-10T03:40:23;11.15;;;5.68;;
53339;SDS011;46212;50.258;19.062;2023-05-10T03:42:50;11.93;;;5.93;;
53339;SDS011;46212;50.258;19.062;2023-05-10T03:45:16;16.93;;;5.87;;
53339;SDS011;46212;50.258;19.062;2023-05-10T03:47:41;12.95;;;6.28;;
53339;SDS011;46212;50.258;19.062;2023-05-10T03:50:07;17.80;;;6.18;;
53339;SDS011;46212;50.258;19.062;2023-05-10T03:52:32;11.10;;;6.38;;
53339;SDS011;46212;50.258;19.062;2023-05-10T03:54:58;9.67;;;5.77;;
53339;SDS011;46212;50.258;19.062;2023-05-10T03:57:23;13.37;;;6.30;;
53339;SDS011;46212;50.258;19.062;2023-05-10T03:59:48;15.10;;;6.80;;
53339;SDS011;46212;50.258;19.062;2023-05-10T04:02:15;10.93;;;5.87;;
53339;SDS011;46212;50.258;19.062;2023-05-10T04:04:40;13.32;;;6.57;;
53339;SDS011;46212;50.258;19.062;2023-05-10T04:07:05;11.20;;;6.13;;
53339;SDS011;46212;50.258;19.062;2023-05-10T04:09:31;9.93;;;5.75;;
53339;SDS011;46212;50.258;19.062;2023-05-10T04:11:58;12.60;;;5.70;;
53339;SDS011;46212;50.258;19.062;2023-05-10T04:14:24;12.23;;;6.72;;
53339;SDS011;46212;50.258;19.062;2023-05-10T04:16:49;13.20;;;6.47;;
53339;SDS011;46212;50.258;19.062;2023-05-10T04:19:17;10.83;;;6.17;;
53339;SDS011;46212;50.258;19.062;2023-05-10T04:21:43;12.13;;;6.35;;
53339;SDS011;46212;50.258;19.062;2023-05-10T04:24:08;14.33;;;6.97;;
53339;SDS011;46212;50.258;19.062;2023-05-10T04:26:34;16.87;;;7.57;;
53339;SDS011;46212;50.258;19.062;2023-05-10T04:28:59;13.82;;;6.65;;
53339;SDS011;46212;50.258;19.062;2023-05-10T04:31:24;14.98;;;6.65;;
53339;SDS011;46212;50.258;19.062;2023-05-10T04:33:51;15.45;;;6.45;;
53339;SDS011;46212;50.258;19.062;2023-05-10T04:36:16;11.30;;;6.73;;
53339;SDS011;46212;50.258;19.062;2023-05-10T04:38:41;21.98;;;7.68;;
53339;SDS011;46212;50.258;19.062;2023-05-10T04:41:08;13.55;;;5.60;;
53339;SDS011;46212;50.258;19.062;2023-05-10T04:43:34;14.30;;;6.20;;
53339;SDS011;46212;50.258;19.062;2023-05-10T04:46:01;17.95;;;6.70;;
53339;SDS011;46212;50.258;19.062;2023-05-10T04:48:26;13.97;;;7.53;;
53339;SDS011;46212;50.258;19.062;2023-05-10T04:50:52;14.70;;;6.83;;
53339;SDS011;46212;50.258;19.062;2023-05-10T04:53:17;16.10;;;7.07;;
53339;SDS011;46212;50.258;19.062;2023-05-10T04:55:42;12.10;;;6.93;;
53339;SDS011;46212;50.258;19.062;2023-05-10T04:58:08;17.47;;;7.43;;
53339;SDS011;46212;50.258;19.062;2023-05-10T05:00:33;18.67;;;9.27;;
53339;SDS011;46212;50.258;19.062;2023-05-10T05:02:59;15.77;;;8.07;;
53339;SDS011;46212;50.258;19.062;2023-05-10T05:05:24;18.63;;;8.00;;
53339;SDS011;46212;50.258;19.062;2023-05-10T05:07:50;16.97;;;7.10;;
53339;SDS011;46212;50.258;19.062;2023-05-10T05:10:15;14.85;;;8.05;;
53339;SDS011;46212;50.258;19.062;2023-05-10T05:12:41;16.10;;;7.03;;
53339;SDS011;46212;50.258;19.062;2023-05-10T05:15:06;16.47;;;8.10;;
53339;SDS011;46212;50.258;19.062;2023-05-10T05:17:34;10.63;;;6.82;;
53339;SDS011;46212;50.258;19.062;2023-05-10T05:19:59;16.80;;;6.63;;
53339;SDS011;46212;50.258;19.062;2023-05-10T05:22:25;10.03;;;6.17;;
53339;SDS011;46212;50.258;19.062;2023-05-10T05:24:55;13.48;;;6.30;;
53339;SDS011;46212;50.258;19.062;2023-05-10T05:27:21;11.25;;;5.53;;
53339;SDS011;46212;50.258;19.062;2023-05-10T05:29:49;11.57;;;5.53;;
53339;SDS011;46212;50.258;19.062;2023-05-10T05:32:18;13.32;;;5.60;;
53339;SDS011;46212;50.258;19.062;2023-05-10T05:34:44;12.60;;;5.60;;
53339;SDS011;46212;50.258;19.062;2023-05-10T05:37:17;18.33;;;6.13;;
53339;SDS011;46212;50.258;19.062;2023-05-10T05:39:44;15.68;;;6.97;;
53339;SDS011;46212;50.258;19.062;2023-05-10T05:42:10;19.42;;;7.25;;
53339;SDS011;46212;50.258;19.062;2023-05-10T05:44:37;8.65;;;4.82;;
53339;SDS011;46212;50.258;19.062;2023-05-10T05:47:03;10.10;;;6.30;;
53339;SDS011;46212;50.258;19.062;2023-05-10T05:49:29;13.57;;;6.18;;
53339;SDS011;46212;50.258;19.062;2023-05-10T05:51:58;16.67;;;6.20;;
53339;SDS011;46212;50.258;19.062;2023-05-10T05:54:25;9.50;;;4.88;;
53339;SDS011;46212;50.258;19.062;2023-05-10T05:56:50;10.23;;;5.77;;
53339;SDS011;46212;50.258;19.062;2023-05-10T05:59:15;12.90;;;5.40;;
53339;SDS011;46212;50.258;19.062;2023-05-10T06:01:41;9.47;;;4.40;;
53339;SDS011;46212;50.258;19.062;2023-05-10T06:04:06;7.43;;;4.53;;
53339;SDS011;46212;50.258;19.062;2023-05-10T06:06:32;9.03;;;4.87;;
53339;SDS011;46212;50.258;19.062;2023-05-10T06:08:57;11.17;;;4.30;;
53339;SDS011;46212;50.258;19.062;2023-05-10T06:11:23;11.70;;;4.67;;
53339;SDS011;46212;50.258;19.062;2023-05-10T06:13:48;10.03;;;4.60;;
53339;SDS011;46212;50.258;19.062;2023-05-10T06:16:14;8.10;;;4.55;;
53339;SDS011;46212;50.258;19.062;2023-05-10T06:18:39;9.57;;;4.90;;
53339;SDS011;46212;50.258;19.062;2023-05-10T06:21:05;10.67;;;5.37;;
53339;SDS011;46212;50.258;19.062;2023-05-10T06:23:30;6.73;;;3.97;;
53339;SDS011;46212;50.258;19.062;2023-05-10T06:25:56;9.10;;;3.60;;
53339;SDS011;46212;50.258;19.062;2023-05-10T06:28:21;10.70;;;5.63;;
53339;SDS011;46212;50.258;19.062;2023-05-10T06:30:47;5.77;;;3.83;;
53339;SDS011;46212;50.258;19.062;2023-05-10T06:33:12;11.77;;;5.20;;
53339;SDS011;46212;50.258;19.062;2023-05-10T06:35:38;7.17;;;4.93;;
53339;SDS011;46212;50.258;19.062;2023-05-10T06:38:03;10.47;;;4.27;;
53339;SDS011;46212;50.258;19.062;2023-05-10T06:40:29;9.17;;;4.10;;
53339;SDS011;46212;50.258;19.062;2023-05-10T06:42:54;7.80;;;3.67;;
53339;SDS011;46212;50.258;19.062;2023-05-10T06:45:20;7.77;;;3.40;;
53339;SDS011;46212;50.258;19.062;2023-05-10T06:47:45;8.00;;;3.17;;
53339;SDS011;46212;50.258;19.062;2023-05-10T06:50:11;8.23;;;3.77;;
53339;SDS011;46212;50.258;19.062;2023-05-10T06:52:36;4.37;;;3.27;;
53339;SDS011;46212;50.258;19.062;2023-05-10T06:55:05;13.23;;;3.80;;
53339;SDS011;46212;50.258;19.062;2023-05-10T06:57:31;5.70;;;3.03;;
53339;SDS011;46212;50.258;19.062;2023-05-10T06:59:57;7.53;;;3.47;;
53339;SDS011;46212;50.258;19.062;2023-05-10T07:02:25;17.40;;;3.45;;
53339;SDS011;46212;50.258;19.062;2023-05-10T07:04:51;9.27;;;3.83;;
53339;SDS011;46212;50.258;19.062;2023-05-10T07:07:17;8.27;;;2.77;;
53339;SDS011;46212;50.258;19.062;2023-05-10T07:09:43;7.03;;;2.97;;
53339;SDS011;46212;50.258;19.062;2023-05-10T07:12:08;9.83;;;3.27;;
53339;SDS011;46212;50.258;19.062;2023-05-10T07:14:33;6.73;;;2.83;;
53339;SDS011;46212;50.258;19.062;2023-05-10T07:16:59;6.40;;;2.80;;
53339;SDS011;46212;50.258;19.062;2023-05-10T07:19:24;6.57;;;2.43;;
53339;SDS011;46212;50.258;19.062;2023-05-10T07:21:50;6.63;;;3.10;;
53339;SDS011;46212;50.258;19.062;2023-05-10T07:24:15;5.23;;;2.57;;
53339;SDS011;46212;50.258;19.062;2023-05-10T07:26:41;6.90;;;2.50;;
53339;SDS011;46212;50.258;19.062;2023-05-10T07:29:06;6.60;;;2.83;;
53339;SDS011;46212;50.258;19.062;2023-05-10T07:31:32;6.47;;;2.67;;
53339;SDS011;46212;50.258;19.062;2023-05-10T07:33:57;8.33;;;2.40;;
53339;SDS011;46212;50.258;19.062;2023-05-10T07:36:22;6.13;;;2.43;;
53339;SDS011;46212;50.258;19.062;2023-05-10T07:38:48;4.07;;;2.43;;
53339;SDS011;46212;50.258;19.062;2023-05-10T07:41:14;8.50;;;2.90;;
53339;SDS011;46212;50.258;19.062;2023-05-10T07:43:39;7.40;;;2.30;;
53339;SDS011;46212;50.258;19.062;2023-05-10T07:46:05;5.77;;;2.87;;
53339;SDS011;46212;50.258;19.062;2023-05-10T07:48:31;6.83;;;3.10;;
53339;SDS011;46212;50.258;19.062;2023-05-10T07:50:56;10.60;;;3.47;;
53339;SDS011;46212;50.258;19.062;2023-05-10T07:53:21;8.40;;;2.60;;
53339;SDS011;46212;50.258;19.062;2023-05-10T07:55:50;10.33;;;2.97;;
53339;SDS011;46212;50.258;19.062;2023-05-10T07:58:16;5.38;;;2.45;;
53339;SDS011;46212;50.258;19.062;2023-05-10T08:00:42;11.27;;;2.83;;
53339;SDS011;46212;50.258;19.062;2023-05-10T08:03:07;4.90;;;2.20;;
53339;SDS011;46212;50.258;19.062;2023-05-10T08:05:32;3.43;;;1.87;;
53339;SDS011;46212;50.258;19.062;2023-05-10T08:07:58;8.73;;;2.53;;
53339;SDS011;46212;50.258;19.062;2023-05-10T08:10:24;4.20;;;1.70;;
53339;SDS011;46212;50.258;19.062;2023-05-10T08:12:50;4.88;;;2.20;;
53339;SDS011;46212;50.258;19.062;2023-05-10T08:15:16;3.73;;;2.23;;
53339;SDS011;46212;50.258;19.062;2023-05-10T08:17:41;4.77;;;2.33;;
53339;SDS011;46212;50.258;19.062;2023-05-10T08:20:08;5.68;;;2.53;;
53339;SDS011;46212;50.258;19.062;2023-05-10T08:22:33;6.53;;;2.43;;
53339;SDS011;46212;50.258;19.062;2023-05-10T08:24:59;3.30;;;1.57;;
53339;SDS011;46212;50.258;19.062;2023-05-10T08:27:24;2.27;;;1.40;;
53339;SDS011;46212;50.258;19.062;2023-05-10T08:29:50;5.17;;;1.97;;
53339;SDS011;46212;50.258;19.062;2023-05-10T08:32:15;10.60;;;1.70;;
53339;SDS011;46212;50.258;19.062;2023-05-10T08:34:40;5.73;;;1.80;;
53339;SDS011;46212;50.258;19.062;2023-05-10T08:37:06;3.70;;;1.73;;
53339;SDS011;46212;50.258;19.062;2023-05-10T08:39:34;2.80;;;1.90;;
53339;SDS011;46212;50.258;19.062;2023-05-10T08:42:01;10.20;;;2.03;;
53339;SDS011;46212;50.258;19.062;2023-05-10T08:44:29;4.30;;;2.15;;
53339;SDS011;46212;50.258;19.062;2023-05-10T08:46:57;4.47;;;2.17;;
53339;SDS011;46212;50.258;19.062;2023-05-10T08:49:24;2.72;;;1.70;;
53339;SDS011;46212;50.258;19.062;2023-05-10T08:51:54;5.25;;;1.92;;
53339;SDS011;46212;50.258;19.062;2023-05-10T08:54:22;4.80;;;1.80;;
53339;SDS011;46212;50.258;19.062;2023-05-10T08:56:48;5.93;;;2.63;;
53339;SDS011;46212;50.258;19.062;2023-05-10T08:59:13;6.70;;;2.00;;
53339;SDS011;46212;50.258;19.062;2023-05-10T09:01:40;4.55;;;2.00;;
53339;SDS011;46212;50.258;19.062;2023-05-10T09:04:07;4.47;;;1.80;;
53339;SDS011;46212;50.258;19.062;2023-05-10T09:08:59;5.20;;;2.40;;
53339;SDS011;46212;50.258;19.062;2023-05-10T09:11:26;3.38;;;1.73;;
53339;SDS011;46212;50.258;19.062;2023-05-10T09:13:54;4.78;;;1.50;;
53339;SDS011;46212;50.258;19.062;2023-05-10T09:16:20;3.75;;;1.77;;
53339;SDS011;46212;50.258;19.062;2023-05-10T09:18:46;3.40;;;1.48;;
53339;SDS011;46212;50.258;19.062;2023-05-10T09:21:11;3.30;;;1.50;;
53339;SDS011;46212;50.258;19.062;2023-05-10T09:23:38;6.68;;;2.80;;
53339;SDS011;46212;50.258;19.062;2023-05-10T09:26:07;5.47;;;2.30;;
53339;SDS011;46212;50.258;19.062;2023-05-10T09:28:54;7.77;;;3.63;;
53339;SDS011;46212;50.258;19.062;2023-05-10T09:31:22;4.28;;;2.10;;
53339;SDS011;46212;50.258;19.062;2023-05-10T09:33:50;6.15;;;2.10;;
53339;SDS011;46212;50.258;19.062;2023-05-10T09:36:16;6.15;;;1.90;;
53339;SDS011;46212;50.258;19.062;2023-05-10T09:38:48;6.30;;;2.00;;
53339;SDS011;46212;50.258;19.062;2023-05-10T09:41:22;4.90;;;2.55;;
53339;SDS011;46212;50.258;19.062;2023-05-10T09:43:49;16.20;;;3.40;;
53339;SDS011;46212;50.258;19.062;2023-05-10T09:46:15;4.50;;;2.28;;
53339;SDS011;46212;50.258;19.062;2023-05-10T09:48:42;3.90;;;1.80;;
53339;SDS011;46212;50.258;19.062;2023-05-10T09:51:18;5.18;;;2.00;;
53339;SDS011;46212;50.258;19.062;2023-05-10T09:53:48;3.95;;;1.90;;
53339;SDS011;46212;50.258;19.062;2023-05-10T09:56:34;4.65;;;1.75;;
53339;SDS011;46212;50.258;19.062;2023-05-10T09:59:05;3.67;;;1.80;;
53339;SDS011;46212;50.258;19.062;2023-05-10T10:01:31;7.13;;;1.83;;
53339;SDS011;46212;50.258;19.062;2023-05-10T10:03:57;8.23;;;2.57;;
53339;SDS011;46212;50.258;19.062;2023-05-10T10:06:23;6.45;;;2.42;;
53339;SDS011;46212;50.258;19.062;2023-05-10T10:08:50;6.90;;;1.95;;
53339;SDS011;46212;50.258;19.062;2023-05-10T10:13:42;6.82;;;2.35;;
53339;SDS011;46212;50.258;19.062;2023-05-10T10:16:08;5.70;;;2.15;;
53339;SDS011;46212;50.258;19.062;2023-05-10T10:18:35;4.63;;;1.77;;
53339;SDS011;46212;50.258;19.062;2023-05-10T10:21:07;4.40;;;2.10;;
53339;SDS011;46212;50.258;19.062;2023-05-10T10:23:36;4.05;;;2.20;;
53339;SDS011;46212;50.258;19.062;2023-05-10T10:26:02;6.85;;;1.90;;
53339;SDS011;46212;50.258;19.062;2023-05-10T10:28:48;4.03;;;2.30;;
53339;SDS011;46212;50.258;19.062;2023-05-10T10:31:23;3.70;;;1.80;;
53339;SDS011;46212;50.258;19.062;2023-05-10T10:34:07;5.50;;;2.05;;
53339;SDS011;46212;50.258;19.062;2023-05-10T10:36:39;7.28;;;1.92;;
53339;SDS011;46212;50.258;19.062;2023-05-10T10:39:14;5.13;;;1.88;;
53339;SDS011;46212;50.258;19.062;2023-05-10T10:41:56;4.13;;;1.98;;
53339;SDS011;46212;50.258;19.062;2023-05-10T10:44:23;3.22;;;1.70;;
53339;SDS011;46212;50.258;19.062;2023-05-10T10:49:34;4.85;;;2.05;;
53339;SDS011;46212;50.258;19.062;2023-05-10T10:52:14;5.10;;;1.75;;
53339;SDS011;46212;50.258;19.062;2023-05-10T11:02:47;9.35;;;2.08;;
53339;SDS011;46212;50.258;19.062;2023-05-10T11:10:23;7.25;;;2.00;;
53339;SDS011;46212;50.258;19.062;2023-05-10T11:15:32;4.25;;;2.33;;
53339;SDS011;46212;50.258;19.062;2023-05-10T11:17:59;4.95;;;2.17;;
53339;SDS011;46212;50.258;19.062;2023-05-10T11:20:40;3.80;;;2.20;;
53339;SDS011;46212;50.258;19.062;2023-05-10T11:23:13;5.57;;;1.93;;
53339;SDS011;46212;50.258;19.062;2023-05-10T11:25:41;5.63;;;2.55;;
53339;SDS011;46212;50.258;19.062;2023-05-10T11:28:08;3.45;;;1.65;;
53339;SDS011;46212;50.258;19.062;2023-05-10T11:30:33;11.60;;;5.57;;
53339;SDS011;46212;50.258;19.062;2023-05-10T11:32:58;4.83;;;2.80;;
53339;SDS011;46212;50.258;19.062;2023-05-10T11:35:24;3.03;;;1.80;;
53339;SDS011;46212;50.258;19.062;2023-05-10T11:37:52;3.15;;;1.70;;
53339;SDS011;46212;50.258;19.062;2023-05-10T11:40:18;5.60;;;2.20;;
53339;SDS011;46212;50.258;19.062;2023-05-10T11:42:44;4.57;;;2.47;;
53339;SDS011;46212;50.258;19.062;2023-05-10T11:45:10;5.55;;;2.28;;
53339;SDS011;46212;50.258;19.062;2023-05-10T11:47:36;5.73;;;2.10;;
53339;SDS011;46212;50.258;19.062;2023-05-10T11:50:02;4.47;;;2.10;;
53339;SDS011;46212;50.258;19.062;2023-05-10T11:52:28;5.03;;;2.08;;
53339;SDS011;46212;50.258;19.062;2023-05-10T11:54:54;4.57;;;1.73;;
53339;SDS011;46212;50.258;19.062;2023-05-10T11:59:53;6.82;;;2.10;;
53339;SDS011;46212;50.258;19.062;2023-05-10T12:02:22;3.33;;;2.03;;
53339;SDS011;46212;50.258;19.062;2023-05-10T12:04:49;3.83;;;1.85;;
53339;SDS011;46212;50.258;19.062;2023-05-10T12:07:16;5.53;;;2.13;;
53339;SDS011;46212;50.258;19.062;2023-05-10T12:09:43;5.25;;;2.00;;
53339;SDS011;46212;50.258;19.062;2023-05-10T12:12:27;5.63;;;2.90;;
53339;SDS011;46212;50.258;19.062;2023-05-10T12:15:00;5.05;;;2.20;;
53339;SDS011;46212;50.258;19.062;2023-05-10T12:17:29;2.65;;;1.60;;
53339;SDS011;46212;50.258;19.062;2023-05-10T12:19:58;2.50;;;1.63;;
53339;SDS011;46212;50.258;19.062;2023-05-10T12:22:25;3.80;;;1.98;;
53339;SDS011;46212;50.258;19.062;2023-05-10T12:24:51;7.28;;;2.33;;
53339;SDS011;46212;50.258;19.062;2023-05-10T12:27:17;3.97;;;1.92;;
53339;SDS011;46212;50.258;19.062;2023-05-10T12:29:42;3.97;;;2.10;;
53339;SDS011;46212;50.258;19.062;2023-05-10T12:32:11;3.42;;;1.73;;
53339;SDS011;46212;50.258;19.062;2023-05-10T12:34:36;4.13;;;1.70;;
53339;SDS011;46212;50.258;19.062;2023-05-10T12:37:03;4.03;;;2.05;;
53339;SDS011;46212;50.258;19.062;2023-05-10T12:39:42;4.15;;;1.70;;
53339;SDS011;46212;50.258;19.062;2023-05-10T12:42:09;5.97;;;1.88;;
53339;SDS011;46212;50.258;19.062;2023-05-10T12:44:35;4.68;;;1.88;;
53339;SDS011;46212;50.258;19.062;2023-05-10T12:47:01;3.25;;;1.83;;
53339;SDS011;46212;50.258;19.062;2023-05-10T12:49:26;7.00;;;2.10;;
53339;SDS011;46212;50.258;19.062;2023-05-10T12:51:51;3.37;;;1.87;;
53339;SDS011;46212;50.258;19.062;2023-05-10T12:54:17;6.10;;;2.13;;
53339;SDS011;46212;50.258;19.062;2023-05-10T12:56:42;5.87;;;2.27;;
53339;SDS011;46212;50.258;19.062;2023-05-10T12:59:08;3.83;;;2.13;;
53339;SDS011;46212;50.258;19.062;2023-05-10T13:01:33;3.63;;;1.83;;
53339;SDS011;46212;50.258;19.062;2023-05-10T13:03:59;4.90;;;2.70;;
53339;SDS011;46212;50.258;19.062;2023-05-10T13:06:25;4.55;;;1.90;;
53339;SDS011;46212;50.258;19.062;2023-05-10T13:08:50;3.93;;;2.30;;
53339;SDS011;46212;50.258;19.062;2023-05-10T13:11:16;3.15;;;1.65;;
53339;SDS011;46212;50.258;19.062;2023-05-10T13:13:44;3.50;;;1.80;;
53339;SDS011;46212;50.258;19.062;2023-05-10T13:16:10;4.40;;;2.20;;
53339;SDS011;46212;50.258;19.062;2023-05-10T13:18:35;3.97;;;1.93;;
53339;SDS011;46212;50.258;19.062;2023-05-10T13:21:01;6.33;;;1.73;;
53339;SDS011;46212;50.258;19.062;2023-05-10T13:23:28;4.45;;;2.20;;
53339;SDS011;46212;50.258;19.062;2023-05-10T13:25:54;5.40;;;2.30;;
53339;SDS011;46212;50.258;19.062;2023-05-10T13:28:19;6.27;;;2.00;;
53339;SDS011;46212;50.258;19.062;2023-05-10T13:30:45;3.55;;;2.55;;
53339;SDS011;46212;50.258;19.062;2023-05-10T13:33:11;6.20;;;3.93;;
53339;SDS011;46212;50.258;19.062;2023-05-10T13:35:36;5.10;;;2.77;;
53339;SDS011;46212;50.258;19.062;2023-05-10T13:38:01;5.03;;;1.93;;
53339;SDS011;46212;50.258;19.062;2023-05-10T13:40:27;6.60;;;1.70;;
53339;SDS011;46212;50.258;19.062;2023-05-10T13:42:53;4.38;;;2.10;;
53339;SDS011;46212;50.258;19.062;2023-05-10T13:45:18;6.10;;;2.55;;
53339;SDS011;46212;50.258;19.062;2023-05-10T13:47:44;5.40;;;3.70;;
53339;SDS011;46212;50.258;19.062;2023-05-10T13:50:10;5.75;;;3.28;;
53339;SDS011;46212;50.258;19.062;2023-05-10T13:52:35;7.93;;;3.67;;
53339;SDS011;46212;50.258;19.062;2023-05-10T13:55:00;4.73;;;2.90;;
53339;SDS011;46212;50.258;19.062;2023-05-10T13:57:26;3.57;;;2.23;;
53339;SDS011;46212;50.258;19.062;2023-05-10T13:59:53;4.20;;;2.60;;
53339;SDS011;46212;50.258;19.062;2023-05-10T14:02:19;5.85;;;2.60;;
53339;SDS011;46212;50.258;19.062;2023-05-10T14:04:44;5.40;;;2.30;;
53339;SDS011;46212;50.258;19.062;2023-05-10T14:07:10;3.13;;;1.85;;
53339;SDS011;46212;50.258;19.062;2023-05-10T14:09:36;3.37;;;1.50;;
53339;SDS011;46212;50.258;19.062;2023-05-10T14:12:02;2.95;;;1.70;;
53339;SDS011;46212;50.258;19.062;2023-05-10T14:14:27;4.53;;;2.03;;
53339;SDS011;46212;50.258;19.062;2023-05-10T14:16:54;7.00;;;1.80;;
53339;SDS011;46212;50.258;19.062;2023-05-10T14:19:19;5.03;;;1.70;;
53339;SDS011;46212;50.258;19.062;2023-05-10T14:21:45;3.55;;;2.08;;
53339;SDS011;46212;50.258;19.062;2023-05-10T14:24:10;4.40;;;1.80;;
53339;SDS011;46212;50.258;19.062;2023-05-10T14:26:36;4.22;;;1.83;;
53339;SDS011;46212;50.258;19.062;2023-05-10T14:29:02;3.33;;;2.20;;
53339;SDS011;46212;50.258;19.062;2023-05-10T14:31:28;3.17;;;2.13;;
53339;SDS011;46212;50.258;19.062;2023-05-10T14:33:55;2.55;;;1.65;;
53339;SDS011;46212;50.258;19.062;2023-05-10T14:36:20;6.35;;;2.10;;
53339;SDS011;46212;50.258;19.062;2023-05-10T14:38:46;3.90;;;1.95;;
53339;SDS011;46212;50.258;19.062;2023-05-10T14:41:12;2.05;;;1.52;;
53339;SDS011;46212;50.258;19.062;2023-05-10T14:43:42;3.53;;;2.00;;
53339;SDS011;46212;50.258;19.062;2023-05-10T14:48:33;2.35;;;1.52;;
53339;SDS011;46212;50.258;19.062;2023-05-10T14:53:24;2.45;;;1.67;;
53339;SDS011;46212;50.258;19.062;2023-05-10T14:58:15;4.10;;;2.42;;
53339;SDS011;46212;50.258;19.062;2023-05-10T15:00:41;2.95;;;2.10;;
53339;SDS011;46212;50.258;19.062;2023-05-10T15:03:06;3.13;;;1.63;;
53339;SDS011;46212;50.258;19.062;2023-05-10T15:05:32;2.65;;;1.80;;
53339;SDS011;46212;50.258;19.062;2023-05-10T15:07:57;7.13;;;2.42;;
53339;SDS011;46212;50.258;19.062;2023-05-10T15:10:23;7.00;;;4.17;;
53339;SDS011;46212;50.258;19.062;2023-05-10T15:12:48;9.60;;;2.60;;
53339;SDS011;46212;50.258;19.062;2023-05-10T15:15:15;4.57;;;2.28;;
53339;SDS011;46212;50.258;19.062;2023-05-10T15:17:40;5.07;;;2.50;;
53339;SDS011;46212;50.258;19.062;2023-05-10T15:20:06;9.30;;;4.60;;
53339;SDS011;46212;50.258;19.062;2023-05-10T15:22:32;7.10;;;3.40;;
53339;SDS011;46212;50.258;19.062;2023-05-10T15:24:58;3.97;;;2.23;;
53339;SDS011;46212;50.258;19.062;2023-05-10T15:27:24;4.65;;;2.20;;
53339;SDS011;46212;50.258;19.062;2023-05-10T15:32:15;3.15;;;1.90;;